Time;durP1;ratioP1;P1;durP2;ratioP2;P2;SDS_P1;SDS_P2;PMS_P1;PMS_P2;Temp;Humidity;BMP_temperature;BMP_pressure;BME280_temperature;BME280_humidity;BME280_pressure;Samples;Min_cycle;Max_cycle;Signal;HPM_P1;HPM_P2
2023/11/01 19:01:00;;;;;;;;;;;;;;;;;;5010584;27;19921;-70
2023/11/01 19:03:25;;;;;;;;;;;;;;;;;;5011936;28;19920;-70
2023/11/01 19:05:50;;;;;;;;;;;;;;;;;;5011837;28;19921;-70
2023/11/01 19:08:16;;;;;;;;;;;;;;;;;;5012152;28;20000;-70
2023/11/01 19:10:42;;;;;;;;;;;;;;;;;;5012345;28;19920;-69
2023/11/01 19:13:08;;;;;;;;;;;;;;;;;;5011761;28;19910;-69
2023/11/01 19:15:33;;;;;;;;;;;;;;;;;;5011735;28;20374;-68
2023/11/01 19:18:01;;;;;;;;;;;;;;;;;;5011703;28;20263;-69
2023/11/01 19:20:26;;;;;;;;;;;;;;;;;;5012167;28;19972;-69
2023/11/01 19:22:52;;;;;;;;;;;;;;;;;;5011325;28;19910;-68
2023/11/01 19:25:17;;;;;;;;;;;;;;;;;;5012362;28;19917;-68
2023/11/01 19:27:42;;;;;;;;;;;;;;;;;;5011810;28;19929;-68
2023/11/01 19:30:07;;;;;;;;;;;;;;;;;;5011138;28;19947;-68
2023/11/01 19:32:32;;;;;;;;;;;;;;;;;;5011403;28;20307;-68
2023/11/01 19:34:57;;;;;;;;;;;;;;;;;;5011980;28;19956;-68
2023/11/01 19:37:22;;;;;;;;;;;;;;;;;;5011283;28;19910;-69
2023/11/01 19:39:48;;;;;;;;;;;;;;;;;;5011267;28;19921;-68
2023/11/01 19:42:13;;;;;;;;;;;;;;;;;;5010890;28;19937;-68
2023/11/01 19:44:38;;;;;;;;;;;;;;;;;;5009946;28;19968;-68
2023/11/01 19:47:03;;;;;;;;;;;;;;;;;;5011346;28;20271;-68
2023/11/01 19:49:28;;;;;;;;;;;;;;;;;;5011371;28;20321;-68
2023/11/01 19:51:54;;;;;;;;;;;;;;;;;;5010782;28;19910;-68
2023/11/01 19:54:19;;;;;;;;;;;;;;;;;;5011325;28;20381;-68
2023/11/01 19:56:44;;;;;;;;;;;;;;;;;;5011001;28;20402;-68
2023/11/01 19:59:11;;;;;;;;;;;;;;;;;;5010776;28;20287;-68
2023/11/01 20:01:36;;;;;;;;;;;;;;;;;;5010930;28;19910;-68
2023/11/01 20:04:01;;;;;;;;;;;;;;;;;;5010864;28;19909;-67
2023/11/01 20:06:26;;;;;;;;;;;;;;;;;;5010843;28;19910;-68
2023/11/01 20:08:51;;;;;;;;;;;;;;;;;;5011331;28;19910;-68
2023/11/01 20:11:16;;;;;;;;;;;;;;;;;;5003818;28;19916;-68
2023/11/01 20:13:42;;;;;;;;;;;;;;;;;;4997408;28;20343;-69
2023/11/01 20:16:07;;;;;;;;;;;;;;;;;;4997316;28;20279;-68
2023/11/01 20:18:32;;;;;;;;;;;;;;;;;;4998484;28;19934;-68
2023/11/01 20:20:57;;;;;;;;;;;;;;;;;;4996231;28;19918;-68
2023/11/01 20:23:22;;;;;;;;;;;;;;;;;;4997184;28;19910;-68
2023/11/01 20:25:47;;;;;;;;;;;;;;;;;;4997194;28;19913;-67
2023/11/01 20:28:13;;;;;;;;;;;;;;;;;;4997959;28;19957;-68
2023/11/01 20:30:38;;;;;;;;;;;;;;;;;;4997313;28;19917;-68
2023/11/01 20:33:06;;;;;;;;;;;;;;;;;;4997284;28;19910;-68
2023/11/01 20:35:31;;;;;;;;;;;;;;;;;;4997293;28;19913;-67
2023/11/01 20:37:56;;;;;;;;;;;;;;;;;;4997137;28;19917;-68
2023/11/01 20:40:22;;;;;;;;;;;;;;;;;;4996857;28;19976;-67
2023/11/01 20:42:47;;;;;;;;;;;;;;;;;;4997053;28;20001;-68
2023/11/01 20:45:14;;;;;;;;;;;;;;;;;;4997122;28;19953;-68
2023/11/01 20:47:39;;;;;;;;;;;;;;;;;;4997279;28;20004;-68
2023/11/01 20:50:06;;;;;;;;;;;;;;;;;;4997024;28;19964;-68
2023/11/01 20:52:31;;;;;;;;;;;;;;;;;;4996611;28;19952;-68
2023/11/01 20:55:01;;;;;;;;;;;;;;;;;;4996946;28;19910;-68
2023/11/01 20:57:28;;;;;;;;;;;;;;;;;;4996969;28;19914;-68
2023/11/01 20:59:53;;;;;;;;;;;;;;;;;;4997032;28;20409;-68
2023/11/01 21:02:18;;;;;;;;;;;;;;;;;;4996463;28;20005;-68
2023/11/01 21:04:43;;;;;;;;;;;;;;;;;;4997543;28;19910;-68
2023/11/01 21:07:08;;;;;;;;;;;;;;;;;;4996656;28;20374;-68
2023/11/01 21:09:33;;;;;;;;;;;;;;;;;;4996897;28;19925;-68
2023/11/01 21:12:02;;;;;;;;;;;;;;;;;;4996585;28;20266;-68
2023/11/01 21:14:33;;;;;;;;;;;;;;;;;;4997082;28;20422;-68
2023/11/01 21:16:58;;;;;;;;;;;;;;;;;;4996223;28;19910;-68
2023/11/01 21:19:24;;;;;;;;;;;;;;;;;;4996372;28;19918;-68
2023/11/01 21:21:50;;;;;;;;;;;;;;;;;;4996771;28;20343;-68
2023/11/01 21:24:16;;;;;;;;;;;;;;;;;;4995648;28;20013;-68
2023/11/01 21:26:41;;;;;;;;;;;;;;;;;;4996244;28;19953;-68
2023/11/01 21:29:07;;;;;;;;;;;;;;;;;;4996260;28;19949;-68
2023/11/01 21:31:32;;;;;;;;;;;;;;;;;;4996224;28;19910;-68
2023/11/01 21:33:57;;;;;;;;;;;;;;;;;;4996162;28;19917;-68
2023/11/01 21:36:22;;;;;;;;;;;;;;;;;;4996164;28;19914;-68
2023/11/01 21:38:47;;;;;;;;;;;;;;;;;;4995647;28;19914;-68
2023/11/01 21:41:12;;;;;;;;;;;;;;;;;;4996323;28;19964;-68
2023/11/01 21:43:37;;;;;;;;;;;;;;;;;;4995645;28;19910;-68
2023/11/01 21:46:03;;;;;;;;;;;;;;;;;;4995983;28;19917;-68
2023/11/01 21:48:28;;;;;;;;;;;;;;;;;;4995502;28;19949;-68
2023/11/01 21:50:53;;;;;;;;;;;;;;;;;;4995848;28;19909;-68
2023/11/01 21:53:18;;;;;;;;;;;;;;;;;;4995818;28;20004;-68
2023/11/01 21:55:43;;;;;;;;;;;;;;;;;;4995761;28;20267;-68
2023/11/01 21:58:08;;;;;;;;;;;;;;;;;;4995815;28;19925;-68
2023/11/01 22:00:33;;;;;;;;;;;;;;;;;;4996137;28;20351;-68
2023/11/01 22:02:59;;;;;;;;;;;;;;;;;;4995388;28;19916;-68
2023/11/01 22:05:25;;;;;;;;;;;;;;;;;;4995567;28;19910;-67
2023/11/01 22:07:50;;;;;;;;;;;;;;;;;;4995509;28;19910;-67
2023/11/01 22:10:15;;;;;;;;;;;;;;;;;;4995518;28;19917;-68
2023/11/01 22:12:40;;;;;;;;;;;;;;;;;;4995131;28;20007;-68
2023/11/01 22:15:05;;;;;;;;;;;;;;;;;;4995449;28;20273;-68
2023/11/01 22:17:31;;;;;;;;;;;;;;;;;;4995982;28;20381;-68
2023/11/01 22:19:56;;;;;;;;;;;;;;;;;;4995535;28;19918;-68
2023/11/01 22:22:21;;;;;;;;;;;;;;;;;;4995298;28;20001;-68
2023/11/01 22:24:46;;;;;;;;;;;;;;;;;;4995844;28;19910;-68
2023/11/01 22:27:12;;;;;;;;;;;;;;;;;;4995224;28;19910;-68
2023/11/01 22:29:38;;;;;;;;;;;;;;;;;;4995170;28;19964;-68
2023/11/01 22:32:03;;;;;;;;;;;;;;;;;;4994817;28;19953;-68
2023/11/01 22:34:29;;;;;;;;;;;;;;;;;;4994902;28;19917;-67
2023/11/01 22:36:54;;;;;;;;;;;;;;;;;;4994959;28;20334;-68
2023/11/01 22:39:19;;;;;;;;;;;;;;;;;;4994972;28;19918;-68
2023/11/01 22:41:44;;;;;;;;;;;;;;;;;;4995021;28;19910;-68
2023/11/01 22:44:10;;;;;;;;;;;;;;;;;;4995038;28;19980;-68
2023/11/01 22:46:35;;;;;;;;;;;;;;;;;;4994973;28;19910;-68
2023/11/01 22:49:00;;;;;;;;;;;;;;;;;;4994963;28;20252;-68
2023/11/01 22:51:26;;;;;;;;;;;;;;;;;;4994922;28;19945;-68
2023/11/01 22:53:52;;;;;;;;;;;;;;;;;;4995149;28;20331;-68
2023/11/01 22:56:17;;;;;;;;;;;;;;;;;;4994601;28;19953;-68
2023/11/01 22:58:42;;;;;;;;;;;;;;;;;;4994378;28;20291;-68
2023/11/01 23:01:07;;;;;;;;;;;;;;;;;;4995659;28;19910;-63
2023/11/01 23:03:32;;;;;;;;;;;;;;;;;;4994931;28;20260;-64
2023/11/01 23:05:57;;;;;;;;;;;;;;;;;;4994765;28;19917;-64
2023/11/01 23:08:23;;;;;;;;;;;;;;;;;;4994919;28;20266;-64
2023/11/01 23:10:49;;;;;;;;;;;;;;;;;;4995531;28;19918;-64
2023/11/01 23:13:15;;;;;;;;;;;;;;;;;;4995278;28;19913;-67
2023/11/01 23:15:40;;;;;;;;;;;;;;;;;;4994660;28;19980;-67
2023/11/01 23:18:05;;;;;;;;;;;;;;;;;;4994708;28;19917;-67
2023/11/01 23:20:30;;;;;;;;;;;;;;;;;;4994308;28;19922;-68
2023/11/01 23:22:55;;;;;;;;;;;;;;;;;;4995195;28;20000;-67
2023/11/01 23:25:20;;;;;;;;;;;;;;;;;;4994635;28;19914;-67
2023/11/01 23:27:46;;;;;;;;;;;;;;;;;;4994459;28;19910;-67
2023/11/01 23:30:11;;;;;;;;;;;;;;;;;;4994898;28;19914;-67
2023/11/01 23:32:36;;;;;;;;;;;;;;;;;;4994702;28;19910;-67
2023/11/01 23:35:01;;;;;;;;;;;;;;;;;;4994545;28;19910;-67
2023/11/01 23:37:26;;;;;;;;;;;;;;;;;;4994643;28;19909;-68
2023/11/01 23:39:52;;;;;;;;;;;;;;;;;;4993157;28;19946;-67
2023/11/01 23:42:17;;;;;;;;;;;;;;;;;;4994484;28;19914;-68
2023/11/01 23:44:42;;;;;;;;;;;;;;;;;;4995244;28;19910;-67
2023/11/01 23:47:07;;;;;;;;;;;;;;;;;;4997107;28;20412;-67
2023/11/01 23:49:32;;;;;;;;;;;;;;;;;;4998124;28;19913;-67
2023/11/01 23:51:57;;;;;;;;;;;;;;;;;;4998075;28;19913;-67
2023/11/01 23:54:23;;;;;;;;;;;;;;;;;;4998023;28;19957;-68
2023/11/01 23:56:48;;;;;;;;;;;;;;;;;;4998536;28;19913;-68
2023/11/01 23:59:15;;;;;;;;;;;;;;;;;;4997527;28;19922;-68
